Boischatel, Canada
Current Conditions -  °F | °C
As of 7:00 PM on Monday 20 Oct 2014 (Local Time) from CYQB Reporting Station
Overcast Overcast  
Wind Chill: 31°   Ceiling: 14000
Heat Index: 37°   Visibility: 15mi
Dew Point: 28°   Wind: 8mph
Humidity: 70%   Direction: 250°WSW
Pressure: 29.92"   Gusts: NA
Location:  46.9°N, 71.13°W
Report Text: CYQB 202300Z 25007KT 15SM FEW100 BKN140 OVC240 03/M02 A2992 RMK AC2AC3CI3 SLP136
Loading
Personal Weather Stations






























Interactive Weather Map
Tropical Storm Tracking
New forecast layout! Learn more

10-Day Weather Forecast

Advertisements
Track Severe Weather on mobile